Forside
METAR-TAF:

METAR-TAF

Lufthavne :

Matsumoto, Japan

Breddekreds: 36-10N, længdekreds: 137-56E, højde: 668 m

Aktuelle vejr

Denne rapport blev lavet for 1 time og 10 minutter siden, kl. 01:00 UTC
Vind 5 kt fra nord, varierende mellem vestnordvest og øst
Temperatur 22°C
Fugtighed 41%
Tryk 1011 hPa
Sigt 10 km eller mere
Nogle få skyer i en højde af 5000 ft

METAR: RJAF 070100Z 01005KT 290V080 9999 FEW050 22/08 Q1011

Tid: 11:10 (02:10 UTC)


TAF: fraværende

Vejrobservationer og prognoser fra mere end 4000 lufthavne (METAR og TAF).

De gule og røde prikker repræsenterer de meteorologiske stationer.

Flyt musen over at se navnet på stationen.

Så klik over at se vejr observationer og prognoser.

At skifte det kort: Klik på de grønne knapper med et sort kors for at zoome ind; på den grønne knap med en bindestreg for at zoome ud; eller på de grønne pile for tilstødende kort.


METAR-TAF: